Terminal Aerodrome Forecast
Issued by NWS

Home | Current Version | Previous Version | Text Only | Print | Product List | Glossary On
Versions: 1 2 3 4 5 6 7 8 9 10 11 12 13 14 15 16 17 18 19 20 21 22
801
FTUS43 KGRR 010312 AAA
TAFJXN
TAF AMD
KJXN 010312Z 0103/0124 08008KT 5SM -RA BR OVC006
     FM010800 06005KT 3/4SM BR VCSH OVC003
     FM011500 04004KT 5SM BR OVC004
     FM011700 03006KT 5SM BR OVC007
     FM012100 03006KT 6SM HZ OVC015=

USA.gov is the U.S. government's official web portal to all federal, state and local government web resources and services.